createdAt,value
2023-03-16T00:01:23.683Z,64.77
2023-03-16T00:03:53.791Z,64.66
2023-03-16T00:06:25.597Z,64.33
2023-03-16T00:08:56.478Z,64.16
2023-03-16T00:11:29.972Z,64.41
2023-03-16T00:13:59.858Z,64.31
2023-03-16T00:16:29.648Z,64.81
2023-03-16T00:18:59.558Z,64.60
2023-03-16T00:21:30.674Z,64.86
2023-03-16T00:24:01.053Z,64.85
2023-03-16T00:26:31.817Z,65.19
2023-03-16T00:29:01.885Z,65.22
2023-03-16T00:31:33.323Z,64.79
2023-03-16T00:34:03.180Z,65.12
2023-03-16T00:36:33.972Z,64.97
2023-03-16T00:39:05.186Z,65.46
2023-03-16T00:41:39.414Z,65.46
2023-03-16T00:44:11.935Z,65.68
2023-03-16T00:46:42.803Z,65.04
2023-03-16T00:49:12.718Z,64.75
2023-03-16T00:51:44.089Z,65.05
2023-03-16T00:54:14.820Z,65.09
2023-03-16T00:56:44.603Z,65.37
2023-03-16T00:59:15.547Z,65.54
2023-03-16T01:01:46.661Z,65.53
2023-03-16T01:04:16.465Z,65.38
2023-03-16T01:09:37.204Z,66.14
2023-03-16T01:12:10.784Z,65.72
2023-03-16T01:14:40.639Z,65.36
2023-03-16T01:17:11.299Z,65.28
2023-03-16T01:19:41.606Z,65.81
2023-03-16T01:22:12.743Z,65.96
2023-03-16T01:24:44.770Z,66.04
2023-03-16T01:27:15.616Z,66.30
2023-03-16T01:29:45.327Z,66.14
2023-03-16T01:32:15.175Z,66.45
2023-03-16T01:34:45.080Z,66.32
2023-03-16T01:37:15.680Z,66.83
2023-03-16T01:39:47.170Z,67.04
2023-03-16T01:42:17.311Z,67.05
2023-03-16T01:45:00.638Z,67.08
2023-03-16T01:47:34.121Z,67.40
2023-03-16T01:50:06.200Z,67.40
2023-03-16T01:52:39.088Z,67.77
2023-03-16T01:55:12.324Z,68.36
2023-03-16T01:57:45.139Z,68.25
2023-03-16T02:00:22.952Z,68.06
2023-03-16T02:03:15.098Z,67.80
2023-03-16T02:05:55.533Z,67.80
2023-03-16T02:08:26.501Z,67.91
2023-03-16T02:10:58.290Z,67.64
2023-03-16T02:13:31.445Z,68.01
2023-03-16T02:16:01.721Z,68.31
2023-03-16T02:18:31.771Z,68.56
2023-03-16T02:21:04.893Z,67.98
2023-03-16T02:23:34.924Z,68.07
2023-03-16T02:26:31.023Z,68.53
2023-03-16T02:29:25.881Z,68.19
2023-03-16T02:31:57.024Z,68.06
2023-03-16T02:34:27.834Z,68.25
2023-03-16T02:36:59.695Z,67.84
2023-03-16T02:39:29.715Z,68.04
2023-03-16T02:42:01.239Z,67.42
2023-03-16T02:44:34.266Z,67.19
2023-03-16T02:47:10.416Z,67.77
2023-03-16T02:49:42.957Z,67.26
2023-03-16T02:52:13.208Z,66.89
2023-03-16T02:54:43.500Z,66.77
2023-03-16T02:57:13.784Z,66.61
2023-03-16T02:59:43.828Z,67.19
2023-03-16T03:02:13.384Z,66.99
2023-03-16T03:04:44.943Z,67.15
2023-03-16T03:07:16.023Z,67.15
2023-03-16T03:09:47.729Z,67.28
2023-03-16T03:12:17.272Z,67.66
2023-03-16T03:14:47.110Z,67.70
2023-03-16T03:17:18.794Z,67.44
2023-03-16T03:19:49.798Z,67.42
2023-03-16T03:22:19.518Z,67.41
2023-03-16T03:24:51.503Z,67.31
2023-03-16T03:27:22.551Z,67.60
2023-03-16T03:29:52.943Z,68.25
2023-03-16T03:32:23.127Z,68.23
2023-03-16T03:34:54.628Z,68.49
2023-03-16T03:37:25.402Z,68.29
2023-03-16T03:39:56.019Z,68.98
2023-03-16T03:42:26.220Z,69.58
2023-03-16T03:44:56.042Z,69.65
2023-03-16T03:47:25.875Z,69.70
2023-03-16T03:49:55.620Z,69.70
2023-03-16T03:52:25.254Z,70.55
2023-03-16T03:54:55.011Z,71.34
2023-03-16T03:57:25.150Z,71.98
2023-03-16T03:59:54.971Z,72.70
2023-03-16T04:02:42.493Z,72.73
2023-03-16T04:05:14.043Z,73.59
2023-03-16T04:07:44.095Z,73.30
2023-03-16T04:10:14.800Z,73.34
2023-03-16T04:12:45.184Z,73.10
2023-03-16T04:15:15.153Z,73.50
2023-03-16T04:17:55.643Z,73.81
2023-03-16T04:20:26.790Z,73.82
2023-03-16T04:22:58.595Z,74.71
2023-03-16T04:25:30.538Z,74.20
2023-03-16T04:28:00.742Z,74.57
2023-03-16T04:30:32.105Z,74.05
2023-03-16T04:33:04.752Z,74.28
2023-03-16T04:35:34.729Z,74.44
2023-03-16T04:38:06.500Z,74.17
2023-03-16T04:40:38.205Z,73.88
2023-03-16T04:43:13.679Z,74.17
2023-03-16T04:45:44.928Z,74.17
2023-03-16T04:48:14.928Z,73.48
2023-03-16T04:50:45.706Z,73.64
2023-03-16T04:53:15.930Z,73.56
2023-03-16T04:55:47.438Z,73.56
2023-03-16T04:58:17.538Z,73.61
2023-03-16T05:00:48.990Z,72.96
2023-03-16T05:03:21.565Z,72.52
2023-03-16T05:05:51.956Z,72.51
2023-03-16T05:08:21.772Z,72.24
2023-03-16T05:10:52.312Z,72.75
2023-03-16T05:13:22.327Z,72.54
2023-03-16T05:15:55.332Z,73.07
2023-03-16T05:18:27.124Z,72.65
2023-03-16T05:20:57.856Z,72.40
2023-03-16T05:23:29.317Z,72.07
2023-03-16T05:26:01.189Z,71.86
2023-03-16T05:28:32.450Z,71.87
2023-03-16T05:31:04.269Z,72.08
2023-03-16T05:33:35.775Z,72.17
2023-03-16T05:36:08.901Z,71.50
2023-03-16T05:38:39.606Z,72.29
2023-03-16T05:41:11.126Z,72.09
2023-03-16T05:43:43.573Z,71.60
2023-03-16T05:46:14.023Z,72.17
2023-03-16T05:48:44.172Z,71.96
2023-03-16T05:51:15.248Z,71.77
2023-03-16T05:53:46.595Z,71.69
2023-03-16T05:56:18.089Z,71.62
2023-03-16T05:58:48.000Z,72.15
2023-03-16T06:01:17.770Z,72.52
2023-03-16T06:03:48.963Z,72.32
2023-03-16T06:06:22.608Z,72.32
2023-03-16T06:08:54.126Z,72.31
2023-03-16T06:11:25.323Z,72.97
2023-03-16T06:13:56.959Z,72.97
2023-03-16T06:16:27.029Z,72.85
2023-03-16T06:18:59.548Z,72.54
2023-03-16T06:21:28.428Z,72.94
2023-03-16T06:23:59.642Z,73.33
2023-03-16T06:26:29.634Z,73.26
2023-03-16T06:28:59.568Z,73.90
2023-03-16T06:31:29.589Z,74.21
2023-03-16T06:33:59.788Z,74.21
2023-03-16T06:36:29.988Z,74.50
2023-03-16T06:39:01.612Z,75.08
2023-03-16T06:41:34.953Z,74.94
2023-03-16T06:44:06.171Z,75.32
2023-03-16T06:46:37.759Z,76.15
2023-03-16T06:49:07.314Z,75.89
2023-03-16T06:51:36.906Z,76.02
2023-03-16T06:54:08.283Z,76.17
2023-03-16T06:56:39.808Z,76.21
2023-03-16T06:59:09.724Z,76.41
2023-03-16T07:01:39.996Z,75.87
2023-03-16T07:04:12.578Z,75.76
2023-03-16T07:06:42.899Z,76.01
2023-03-16T07:09:13.052Z,76.50
2023-03-16T07:11:44.722Z,76.84
2023-03-16T07:14:14.208Z,77.01
2023-03-16T07:16:44.076Z,77.23
2023-03-16T07:19:14.170Z,77.42
2023-03-16T07:21:44.010Z,77.40
2023-03-16T07:24:15.458Z,76.89
2023-03-16T07:26:46.275Z,77.13
2023-03-16T07:29:18.411Z,77.05
2023-03-16T07:31:49.194Z,76.71
2023-03-16T07:34:21.273Z,76.60
2023-03-16T07:36:52.929Z,76.33
2023-03-16T07:39:23.920Z,76.06
2023-03-16T07:41:55.427Z,75.18
2023-03-16T07:44:40.671Z,75.44
2023-03-16T07:47:14.468Z,75.56
2023-03-16T07:49:44.625Z,75.34
2023-03-16T07:52:14.823Z,74.80
2023-03-16T07:54:44.957Z,74.39
2023-03-16T07:57:15.558Z,74.91
2023-03-16T07:59:45.762Z,74.75
2023-03-16T08:02:18.925Z,74.83
2023-03-16T08:04:49.635Z,74.42
2023-03-16T08:07:20.160Z,74.69
2023-03-16T08:09:57.148Z,74.37
2023-03-16T08:12:28.662Z,74.90
2023-03-16T08:14:58.445Z,75.39
2023-03-16T08:17:30.046Z,75.13
2023-03-16T08:20:00.193Z,75.69
2023-03-16T08:22:31.136Z,76.05
2023-03-16T08:25:00.968Z,76.53
2023-03-16T08:27:31.158Z,76.59
2023-03-16T08:30:04.252Z,76.83
2023-03-16T08:32:34.971Z,76.66
2023-03-16T08:35:07.397Z,76.88
2023-03-16T08:37:37.435Z,77.45
2023-03-16T08:40:13.107Z,77.87
2023-03-16T08:42:45.077Z,77.01
2023-03-16T08:45:17.367Z,76.96
2023-03-16T08:47:47.138Z,76.97
2023-03-16T08:50:17.406Z,76.55
2023-03-16T08:52:49.051Z,75.91
2023-03-16T08:55:18.906Z,75.24
2023-03-16T08:57:48.777Z,74.93
2023-03-16T09:00:20.479Z,74.90
2023-03-16T09:02:50.447Z,74.86
2023-03-16T09:05:20.641Z,73.97
2023-03-16T09:07:51.436Z,73.97
2023-03-16T09:10:23.263Z,73.15
2023-03-16T09:12:54.080Z,73.15
2023-03-16T09:15:23.632Z,72.75
2023-03-16T09:17:54.352Z,72.47
2023-03-16T09:20:30.037Z,71.98
2023-03-16T09:22:57.142Z,71.98
2023-03-16T09:25:27.917Z,71.59
2023-03-16T09:27:58.070Z,71.22
2023-03-16T09:30:28.522Z,71.60
2023-03-16T09:32:58.572Z,71.21
2023-03-16T09:35:28.676Z,70.90
2023-03-16T09:38:06.831Z,70.93
2023-03-16T09:40:31.867Z,71.03
2023-03-16T09:43:21.888Z,70.62
2023-03-16T09:46:02.868Z,70.20
2023-03-16T09:48:35.730Z,69.16
2023-03-16T09:51:09.281Z,68.91
2023-03-16T09:53:41.989Z,68.79
2023-03-16T09:56:17.159Z,69.26
2023-03-16T09:58:46.885Z,68.42
2023-03-16T10:01:31.470Z,67.70
2023-03-16T10:04:10.314Z,67.67
2023-03-16T10:06:49.617Z,67.54
2023-03-16T10:09:46.123Z,66.31
2023-03-16T10:12:15.945Z,66.63
2023-03-16T10:15:09.446Z,65.80
2023-03-16T10:17:51.468Z,66.26
2023-03-16T10:20:23.975Z,65.14
2023-03-16T10:22:55.472Z,64.61
2023-03-16T10:25:28.312Z,64.20
2023-03-16T10:27:58.422Z,63.60
2023-03-16T10:30:34.111Z,62.39
2023-03-16T10:33:25.012Z,62.37
2023-03-16T10:36:17.036Z,62.30
2023-03-16T10:38:55.607Z,60.78
2023-03-16T10:41:34.500Z,59.33
2023-03-16T10:44:18.379Z,59.33
2023-03-16T10:46:51.148Z,58.17
2023-03-16T10:49:27.123Z,57.15
2023-03-16T10:51:59.484Z,56.76
2023-03-16T10:54:35.658Z,54.80
2023-03-16T10:57:23.354Z,54.80
2023-03-16T10:59:57.547Z,56.08
2023-03-16T11:02:32.976Z,54.80
2023-03-16T11:05:15.976Z,54.08
2023-03-16T11:07:50.851Z,55.09
2023-03-16T11:13:21.614Z,54.30
2023-03-16T11:16:01.553Z,53.71
2023-03-16T11:18:48.895Z,53.67
2023-03-16T11:21:38.572Z,54.00
2023-03-16T11:24:19.180Z,52.73
2023-03-16T11:26:51.637Z,52.98
2023-03-16T11:29:26.710Z,53.10
2023-03-16T11:31:59.783Z,52.24
2023-03-16T11:34:32.016Z,52.78
2023-03-16T11:37:07.834Z,52.45
2023-03-16T11:39:45.909Z,53.44
2023-03-16T11:42:36.611Z,53.45
2023-03-16T11:45:22.825Z,53.66
2023-03-16T11:48:29.813Z,52.97
2023-03-16T11:51:07.563Z,52.97
2023-03-16T11:53:46.591Z,53.18
2023-03-16T11:56:37.014Z,52.21
2023-03-16T11:59:27.643Z,52.66
2023-03-16T12:02:12.710Z,52.60
2023-03-16T12:05:04.421Z,51.87
2023-03-16T12:07:46.393Z,51.55
2023-03-16T12:10:23.676Z,52.51
2023-03-16T12:13:05.035Z,51.88
2023-03-16T12:15:41.874Z,51.50
2023-03-16T12:18:21.782Z,51.49
2023-03-16T12:21:04.080Z,51.31
2023-03-16T12:23:36.410Z,49.86
2023-03-16T12:26:09.033Z,49.38
2023-03-16T12:28:41.031Z,49.69
2023-03-16T12:31:14.179Z,49.26
2023-03-16T12:33:56.408Z,48.99
2023-03-16T12:36:48.590Z,48.59
2023-03-16T12:39:33.178Z,47.81
2023-03-16T12:42:17.081Z,48.69
2023-03-16T12:44:56.471Z,47.98
2023-03-16T12:47:44.153Z,47.18
2023-03-16T12:50:17.865Z,46.66
2023-03-16T12:52:51.247Z,46.62
2023-03-16T12:55:28.074Z,46.15
2023-03-16T12:58:03.738Z,47.37
2023-03-16T13:00:37.232Z,46.39
2023-03-16T13:03:09.652Z,46.39
2023-03-16T13:05:42.495Z,44.83
2023-03-16T13:08:18.116Z,44.54
2023-03-16T13:11:09.598Z,44.02
2023-03-16T13:14:03.632Z,44.36
2023-03-16T13:16:38.703Z,44.71
2023-03-16T13:19:28.350Z,45.10
2023-03-16T13:22:06.722Z,43.90
2023-03-16T13:24:41.415Z,43.40
2023-03-16T13:27:23.272Z,43.32
2023-03-16T13:30:02.089Z,43.32
2023-03-16T13:32:34.719Z,42.36
2023-03-16T13:35:06.786Z,41.52
2023-03-16T13:37:36.649Z,41.68
2023-03-16T13:40:20.399Z,42.00
2023-03-16T13:42:53.027Z,41.68
2023-03-16T13:45:26.199Z,40.97
2023-03-16T13:47:55.966Z,41.00
2023-03-16T13:50:26.044Z,40.84
2023-03-16T13:52:59.212Z,41.13
2023-03-16T13:55:37.343Z,41.09
2023-03-16T13:58:14.684Z,40.60
2023-03-16T14:00:45.904Z,39.91
2023-03-16T14:03:18.700Z,40.50
2023-03-16T14:05:49.521Z,40.35
2023-03-16T14:08:22.673Z,40.32
2023-03-16T14:10:59.813Z,40.34
2023-03-16T14:13:36.345Z,39.77
2023-03-16T14:16:19.793Z,40.07
2023-03-16T14:18:52.049Z,39.70
2023-03-16T14:21:24.948Z,39.69
2023-03-16T14:23:57.427Z,40.30
2023-03-16T14:26:27.487Z,39.68
2023-03-16T14:29:00.279Z,39.21
2023-03-16T14:31:39.662Z,39.10
2023-03-16T14:34:41.635Z,38.41
2023-03-16T14:37:14.714Z,38.58
2023-03-16T14:39:44.611Z,38.30
2023-03-16T14:42:31.816Z,38.51
2023-03-16T14:45:05.956Z,38.14
2023-03-16T14:47:40.686Z,38.78
2023-03-16T14:50:25.840Z,38.57
2023-03-16T14:52:57.375Z,37.71
2023-03-16T14:55:27.208Z,38.06
2023-03-16T14:57:57.127Z,38.08
2023-03-16T15:00:27.155Z,38.74
2023-03-16T15:03:06.530Z,39.09
2023-03-16T15:05:39.582Z,39.53
2023-03-16T15:08:20.105Z,39.43
2023-03-16T15:10:50.881Z,38.68
2023-03-16T15:13:36.684Z,38.82
2023-03-16T15:16:09.966Z,38.74
2023-03-16T15:18:40.082Z,38.62
2023-03-16T15:21:14.461Z,39.38
2023-03-16T15:23:45.759Z,38.04
2023-03-16T15:26:18.387Z,38.06
2023-03-16T15:28:48.223Z,38.44
2023-03-16T15:31:18.101Z,38.90
2023-03-16T15:33:47.860Z,39.04
2023-03-16T15:36:20.332Z,39.41
2023-03-16T15:38:52.626Z,39.42
2023-03-16T15:41:24.931Z,39.06
2023-03-16T15:43:57.265Z,38.99
2023-03-16T15:46:26.967Z,38.70
2023-03-16T15:48:56.895Z,38.17
2023-03-16T15:51:30.339Z,38.42
2023-03-16T15:54:09.644Z,38.92
2023-03-16T15:56:53.317Z,39.22
2023-03-16T15:59:17.482Z,39.13
2023-03-16T16:01:48.420Z,39.67
2023-03-16T16:04:21.750Z,39.71
2023-03-16T16:06:54.225Z,39.39
2023-03-16T16:09:24.336Z,39.52
2023-03-16T16:11:54.235Z,39.84
2023-03-16T16:14:26.716Z,39.50
2023-03-16T16:16:56.645Z,40.02
2023-03-16T16:19:27.027Z,40.22
2023-03-16T16:21:57.155Z,40.73
2023-03-16T16:24:26.709Z,40.73
2023-03-16T16:26:56.629Z,41.11
2023-03-16T16:29:33.704Z,41.73
2023-03-16T16:32:04.015Z,41.48
2023-03-16T16:34:34.066Z,41.44
2023-03-16T16:37:04.188Z,41.82
2023-03-16T16:39:33.964Z,41.82
2023-03-16T16:42:05.063Z,42.00
2023-03-16T16:44:37.554Z,42.19
2023-03-16T16:47:09.286Z,42.56
2023-03-16T16:49:39.234Z,44.14
2023-03-16T16:52:14.304Z,45.53
2023-03-16T16:54:44.053Z,45.79
2023-03-16T16:57:20.643Z,46.17
2023-03-16T16:59:50.298Z,46.46
2023-03-16T17:02:25.930Z,46.45
2023-03-16T17:04:56.849Z,47.14
2023-03-16T17:07:27.294Z,47.61
2023-03-16T17:09:57.305Z,48.14
2023-03-16T17:12:28.678Z,48.14
2023-03-16T17:14:58.604Z,48.15
2023-03-16T17:17:28.730Z,48.64
2023-03-16T17:19:58.516Z,49.16
2023-03-16T17:22:30.193Z,49.26
2023-03-16T17:25:00.394Z,49.65
2023-03-16T17:27:32.944Z,50.74
2023-03-16T17:30:04.336Z,50.50
2023-03-16T17:32:34.377Z,50.73
2023-03-16T17:35:06.017Z,51.06
2023-03-16T17:37:36.155Z,51.25
2023-03-16T17:40:07.513Z,51.29
2023-03-16T17:42:37.251Z,51.34
2023-03-16T17:45:19.669Z,52.09
2023-03-16T17:47:52.189Z,52.45
2023-03-16T17:50:29.399Z,53.08
2023-03-16T17:52:59.290Z,53.17
2023-03-16T17:55:29.353Z,53.55
2023-03-16T17:57:59.663Z,54.23
2023-03-16T18:00:32.645Z,54.02
2023-03-16T18:03:07.187Z,54.33
2023-03-16T18:05:38.051Z,55.09
2023-03-16T18:08:21.093Z,54.71
2023-03-16T18:10:54.107Z,54.68
2023-03-16T18:13:27.967Z,55.21
2023-03-16T18:15:58.637Z,55.34
2023-03-16T18:18:31.591Z,55.16
2023-03-16T18:21:01.850Z,55.42
2023-03-16T18:23:36.932Z,56.30
2023-03-16T18:26:08.930Z,56.30
2023-03-16T18:28:38.686Z,56.76
2023-03-16T18:31:17.199Z,56.67
2023-03-16T18:33:48.748Z,56.90
2023-03-16T18:36:22.093Z,57.24
2023-03-16T18:38:53.731Z,57.56
2023-03-16T18:41:29.298Z,57.56
2023-03-16T18:44:05.644Z,57.70
2023-03-16T18:46:39.080Z,57.78
2023-03-16T18:49:23.419Z,58.16
2023-03-16T18:51:55.033Z,58.24
2023-03-16T18:54:30.591Z,58.36
2023-03-16T18:57:00.725Z,58.40
2023-03-16T18:59:31.421Z,58.69
2023-03-16T19:02:01.493Z,58.50
2023-03-16T19:04:32.837Z,59.27
2023-03-16T19:07:03.006Z,59.50
2023-03-16T19:09:34.773Z,60.26
2023-03-16T19:12:05.107Z,60.26
2023-03-16T19:14:36.767Z,60.61
2023-03-16T19:17:06.836Z,61.37
2023-03-16T19:19:36.677Z,61.49
2023-03-16T19:22:12.775Z,61.48
2023-03-16T19:24:54.441Z,61.64
2023-03-16T19:27:30.745Z,62.09
2023-03-16T19:30:00.731Z,62.28
2023-03-16T19:32:30.373Z,61.99
2023-03-16T19:35:00.557Z,62.55
2023-03-16T19:37:30.375Z,62.55
2023-03-16T19:40:02.087Z,62.08
2023-03-16T19:42:37.079Z,62.88
2023-03-16T19:45:13.916Z,62.63
2023-03-16T19:47:44.186Z,62.76
2023-03-16T19:50:19.359Z,63.11
2023-03-16T19:52:49.611Z,62.96
2023-03-16T19:55:22.883Z,63.01
2023-03-16T19:57:59.000Z,62.60
2023-03-16T20:00:31.028Z,62.73
2023-03-16T20:03:01.453Z,62.97
2023-03-16T20:05:33.647Z,62.95
2023-03-16T20:08:04.690Z,62.96
2023-03-16T20:10:34.222Z,62.63
2023-03-16T20:13:05.614Z,62.67
2023-03-16T20:15:36.340Z,61.94
2023-03-16T20:18:08.758Z,61.45
2023-03-16T20:20:38.549Z,61.05
2023-03-16T20:23:17.536Z,60.91
2023-03-16T20:25:48.432Z,60.94
2023-03-16T20:28:26.477Z,60.94
2023-03-16T20:30:56.577Z,61.03
2023-03-16T20:33:28.740Z,60.70
2023-03-16T20:35:58.672Z,61.42
2023-03-16T20:38:28.768Z,61.58
2023-03-16T20:40:58.813Z,61.53
2023-03-16T20:43:31.474Z,61.59
2023-03-16T20:46:04.012Z,61.55
2023-03-16T20:48:34.073Z,62.41
2023-03-16T20:51:03.880Z,62.68
2023-03-16T20:53:33.716Z,62.39
2023-03-16T20:56:04.255Z,62.55
2023-03-16T20:58:35.985Z,62.43
2023-03-16T21:01:05.741Z,63.01
2023-03-16T21:03:35.509Z,63.65
2023-03-16T21:06:07.451Z,63.27
2023-03-16T21:08:37.273Z,63.55
2023-03-16T21:11:08.596Z,64.27
2023-03-16T21:13:38.779Z,64.20
2023-03-16T21:16:12.176Z,64.20
2023-03-16T21:18:42.444Z,64.92
2023-03-16T21:21:17.277Z,65.42
2023-03-16T21:23:47.685Z,65.77
2023-03-16T21:26:20.207Z,65.43
2023-03-16T21:28:56.533Z,65.85
2023-03-16T21:31:27.357Z,66.23
2023-03-16T21:33:57.650Z,66.02
2023-03-16T21:36:27.433Z,66.62
2023-03-16T21:38:57.896Z,66.62
2023-03-16T21:41:27.723Z,65.65
2023-03-16T21:43:57.593Z,65.56
2023-03-16T21:46:27.074Z,65.63
2023-03-16T21:48:57.269Z,65.42
2023-03-16T21:51:34.747Z,65.25
2023-03-16T21:54:05.555Z,65.13
2023-03-16T21:56:37.526Z,65.35
2023-03-16T21:59:07.937Z,65.55
2023-03-16T22:01:54.324Z,64.75
2023-03-16T22:04:16.727Z,64.80
2023-03-16T22:06:46.706Z,64.80
2023-03-16T22:09:22.743Z,64.93
2023-03-16T22:11:52.637Z,64.96
2023-03-16T22:14:22.412Z,65.08
2023-03-16T22:16:52.174Z,65.26
2023-03-16T22:19:22.312Z,65.37
2023-03-16T22:21:52.119Z,65.37
2023-03-16T22:24:25.067Z,66.27
2023-03-16T22:26:55.244Z,65.68
2023-03-16T22:29:30.807Z,65.68
2023-03-16T22:32:06.866Z,65.58
2023-03-16T22:34:48.576Z,65.55
2023-03-16T22:37:21.273Z,65.59
2023-03-16T22:39:51.998Z,65.78
2023-03-16T22:42:27.251Z,65.67
2023-03-16T22:44:57.226Z,65.66
2023-03-16T22:47:31.432Z,65.60
2023-03-16T22:50:01.927Z,65.54
2023-03-16T22:52:35.106Z,65.47
2023-03-16T22:55:08.190Z,65.17
2023-03-16T22:57:38.031Z,64.76
2023-03-16T23:00:09.830Z,64.76
2023-03-16T23:02:40.236Z,65.11
2023-03-16T23:05:25.093Z,64.30
2023-03-16T23:07:56.068Z,64.43
2023-03-16T23:10:29.331Z,64.48
2023-03-16T23:13:00.439Z,64.14
2023-03-16T23:15:31.719Z,64.64
2023-03-16T23:18:02.047Z,64.64
2023-03-16T23:20:33.396Z,64.55
2023-03-16T23:23:04.098Z,64.56
2023-03-16T23:25:34.087Z,64.97
2023-03-16T23:28:05.108Z,65.02
2023-03-16T23:30:35.522Z,64.23
2023-03-16T23:33:05.780Z,64.23
2023-03-16T23:35:35.809Z,64.10
2023-03-16T23:38:06.123Z,63.73
2023-03-16T23:40:38.556Z,63.68
2023-03-16T23:43:09.491Z,63.73
2023-03-16T23:45:43.800Z,63.41
2023-03-16T23:48:17.925Z,63.26
2023-03-16T23:50:50.558Z,63.34
2023-03-16T23:53:21.274Z,63.19
2023-03-16T23:55:51.539Z,63.13
2023-03-16T23:58:21.698Z,63.09
